createdAt,value
2019-05-05T00:02:04.519Z,10.93
2019-05-05T00:04:40.617Z,10.88
2019-05-05T00:07:14.897Z,10.84
2019-05-05T00:09:46.702Z,10.82
2019-05-05T00:12:31.759Z,10.73
2019-05-05T00:15:09.830Z,10.78
2019-05-05T00:17:45.000Z,10.72
2019-05-05T00:20:16.930Z,10.65
2019-05-05T00:22:49.076Z,10.59
2019-05-05T00:25:21.689Z,10.59
2019-05-05T00:27:54.568Z,10.54
2019-05-05T00:30:26.791Z,10.50
2019-05-05T00:32:58.586Z,10.48
2019-05-05T00:35:34.479Z,10.46
2019-05-05T00:38:06.715Z,10.51
2019-05-05T00:40:38.451Z,10.50
2019-05-05T00:43:10.058Z,10.56
2019-05-05T00:45:45.119Z,10.53
2019-05-05T00:48:24.496Z,10.64
2019-05-05T00:51:01.319Z,10.62
2019-05-05T00:53:34.296Z,10.67
2019-05-05T00:56:06.249Z,10.98
2019-05-05T00:58:39.577Z,10.98
2019-05-05T01:01:30.396Z,10.65
2019-05-05T01:04:06.863Z,10.65
2019-05-05T01:06:39.019Z,10.95
2019-05-05T01:09:14.855Z,10.64
2019-05-05T01:11:48.895Z,10.47
2019-05-05T01:14:24.985Z,10.47
2019-05-05T01:16:56.910Z,10.41
2019-05-05T01:19:29.147Z,10.37
2019-05-05T01:22:00.843Z,10.36
2019-05-05T01:24:34.187Z,10.35
2019-05-05T01:27:06.573Z,10.26
2019-05-05T01:29:38.236Z,10.21
2019-05-05T01:32:15.214Z,10.15
2019-05-05T01:34:48.358Z,10.00
2019-05-05T01:37:25.469Z,9.84
2019-05-05T01:40:14.276Z,9.86
2019-05-05T01:42:45.996Z,9.79
2019-05-05T01:45:17.979Z,9.83
2019-05-05T01:47:49.760Z,9.72
2019-05-05T01:50:21.665Z,9.71
2019-05-05T01:52:55.582Z,9.65
2019-05-05T01:55:28.529Z,9.51
2019-05-05T01:58:01.002Z,9.45
2019-05-05T02:00:34.746Z,9.45
2019-05-05T02:03:08.052Z,9.48
2019-05-05T02:05:39.794Z,9.44
2019-05-05T02:08:11.793Z,9.39
2019-05-05T02:10:45.352Z,9.50
2019-05-05T02:13:19.908Z,9.48
2019-05-05T02:15:52.588Z,9.39
2019-05-05T02:18:27.133Z,9.38
2019-05-05T02:21:07.553Z,9.31
2019-05-05T02:23:39.250Z,9.36
2019-05-05T02:26:10.870Z,9.28
2019-05-05T02:29:04.752Z,9.29
2019-05-05T02:31:37.528Z,9.31
2019-05-05T02:34:11.869Z,9.41
2019-05-05T02:36:45.993Z,9.50
2019-05-05T02:39:16.816Z,9.86
2019-05-05T02:41:49.142Z,10.21
2019-05-05T02:44:21.010Z,10.47
2019-05-05T02:46:55.112Z,10.52
2019-05-05T02:49:27.595Z,10.66
2019-05-05T02:52:00.441Z,10.80
2019-05-05T02:54:33.913Z,11.01
2019-05-05T02:57:05.922Z,11.36
2019-05-05T02:59:39.359Z,11.64
2019-05-05T03:02:14.553Z,11.95
2019-05-05T03:04:47.739Z,12.26
2019-05-05T03:07:25.116Z,12.63
2019-05-05T03:09:58.505Z,13.07
2019-05-05T03:12:34.604Z,13.64
2019-05-05T03:15:07.204Z,13.73
2019-05-05T03:17:39.892Z,14.03
2019-05-05T03:20:14.537Z,14.24
2019-05-05T03:22:47.411Z,14.63
2019-05-05T03:25:19.672Z,14.76
2019-05-05T03:27:53.759Z,14.81
2019-05-05T03:30:26.264Z,14.80
2019-05-05T03:32:58.427Z,14.92
2019-05-05T03:35:30.160Z,15.12
2019-05-05T03:38:03.763Z,15.27
2019-05-05T03:40:36.885Z,15.36
2019-05-05T03:43:14.520Z,15.79
2019-05-05T03:45:50.664Z,16.12
2019-05-05T03:48:24.230Z,16.52
2019-05-05T03:50:55.883Z,16.82
2019-05-05T03:53:30.282Z,17.26
2019-05-05T03:56:03.820Z,17.40
2019-05-05T03:58:38.058Z,17.90
2019-05-05T04:01:18.553Z,18.46
2019-05-05T04:03:50.272Z,18.65
2019-05-05T04:06:25.000Z,18.76
2019-05-05T04:08:56.721Z,19.24
2019-05-05T04:11:28.417Z,19.25
2019-05-05T04:14:00.476Z,19.62
2019-05-05T04:16:34.242Z,19.49
2019-05-05T04:19:08.705Z,19.51
2019-05-05T04:21:40.596Z,19.55
2019-05-05T04:24:14.748Z,19.50
2019-05-05T04:26:49.024Z,19.56
2019-05-05T04:29:21.211Z,19.97
2019-05-05T04:31:54.048Z,20.14
2019-05-05T04:34:26.724Z,20.43
2019-05-05T04:36:58.377Z,20.95
2019-05-05T04:39:30.089Z,21.22
2019-05-05T04:42:01.738Z,21.66
2019-05-05T04:44:34.661Z,22.04
2019-05-05T04:47:14.503Z,22.12
2019-05-05T04:49:56.806Z,22.45
2019-05-05T04:52:34.314Z,22.71
2019-05-05T04:55:07.514Z,22.65
2019-05-05T04:57:39.303Z,22.76
2019-05-05T05:00:13.726Z,22.64
2019-05-05T05:02:54.044Z,22.58
2019-05-05T05:05:27.294Z,22.74
2019-05-05T05:07:58.948Z,23.18
2019-05-05T05:10:32.137Z,23.47
2019-05-05T05:13:05.486Z,23.88
2019-05-05T05:15:37.230Z,24.24
2019-05-05T05:18:10.590Z,23.86
2019-05-05T05:20:46.058Z,23.94
2019-05-05T05:23:17.900Z,23.97
2019-05-05T05:25:50.311Z,23.59
2019-05-05T05:28:23.664Z,23.36
2019-05-05T05:30:56.063Z,23.01
2019-05-05T05:33:27.734Z,22.66
2019-05-05T05:36:00.715Z,22.07
2019-05-05T05:38:34.415Z,21.86
2019-05-05T05:41:07.402Z,21.84
2019-05-05T05:43:40.635Z,21.24
2019-05-05T05:46:17.389Z,21.44
2019-05-05T05:49:07.969Z,21.52
2019-05-05T05:51:40.123Z,21.41
2019-05-05T05:54:14.529Z,21.44
2019-05-05T05:56:46.242Z,21.41
2019-05-05T05:59:20.664Z,21.65
2019-05-05T06:02:08.426Z,21.70
2019-05-05T06:04:28.121Z,21.23
2019-05-05T06:07:04.114Z,21.47
2019-05-05T06:09:35.867Z,21.58
2019-05-05T06:12:09.411Z,21.37
2019-05-05T06:14:44.682Z,20.98
2019-05-05T06:17:18.375Z,21.15
2019-05-05T06:19:53.495Z,20.92
2019-05-05T06:22:29.290Z,20.74
2019-05-05T06:24:59.037Z,20.76
2019-05-05T06:27:34.251Z,20.97
2019-05-05T06:30:07.678Z,21.38
2019-05-05T06:32:43.016Z,21.98
2019-05-05T06:35:13.945Z,21.94
2019-05-05T06:37:50.769Z,22.17
2019-05-05T06:40:41.473Z,22.28
2019-05-05T06:43:31.115Z,22.21
2019-05-05T06:46:04.895Z,22.48
2019-05-05T06:48:36.594Z,22.63
2019-05-05T06:51:08.298Z,22.89
2019-05-05T06:53:39.960Z,23.17
2019-05-05T06:56:14.554Z,23.16
2019-05-05T06:58:50.187Z,23.18
2019-05-05T07:01:21.859Z,23.42
2019-05-05T07:03:56.451Z,23.46
2019-05-05T07:06:29.279Z,23.62
2019-05-05T07:09:02.159Z,23.54
2019-05-05T07:11:34.866Z,23.52
2019-05-05T07:14:07.011Z,23.88
2019-05-05T07:16:38.627Z,23.93
2019-05-05T07:19:14.724Z,24.09
2019-05-05T07:21:46.371Z,24.41
2019-05-05T07:24:18.136Z,24.71
2019-05-05T07:26:51.359Z,24.15
2019-05-05T07:29:24.009Z,24.16
2019-05-05T07:32:00.548Z,24.76
2019-05-05T07:34:36.955Z,25.56
2019-05-05T07:37:09.106Z,25.28
2019-05-05T07:39:41.185Z,25.28
2019-05-05T07:42:14.536Z,25.26
2019-05-05T07:44:50.070Z,25.53
2019-05-05T07:47:23.792Z,25.90
2019-05-05T07:49:56.119Z,26.23
2019-05-05T07:52:27.841Z,26.32
2019-05-05T07:55:00.741Z,25.89
2019-05-05T07:57:35.370Z,25.53
2019-05-05T08:00:11.654Z,25.80
2019-05-05T08:02:43.902Z,25.57
2019-05-05T08:05:15.737Z,25.60
2019-05-05T08:07:47.385Z,25.51
2019-05-05T08:10:20.572Z,25.50
2019-05-05T08:12:54.154Z,25.89
2019-05-05T08:15:27.641Z,25.89
2019-05-05T08:18:01.362Z,26.00
2019-05-05T08:20:37.069Z,25.93
2019-05-05T08:23:25.990Z,26.18
2019-05-05T08:26:16.288Z,26.02
2019-05-05T08:28:49.437Z,25.81
2019-05-05T08:31:27.859Z,25.91
2019-05-05T08:33:59.631Z,26.36
2019-05-05T08:36:33.854Z,26.37
2019-05-05T08:39:07.455Z,26.63
2019-05-05T08:41:39.078Z,27.01
2019-05-05T08:44:11.404Z,27.01
2019-05-05T08:46:44.625Z,27.13
2019-05-05T08:49:16.804Z,27.30
2019-05-05T08:51:50.824Z,27.39
2019-05-05T08:54:23.591Z,27.55
2019-05-05T08:56:55.328Z,27.10
2019-05-05T08:59:28.366Z,26.81
2019-05-05T09:02:00.900Z,26.77
2019-05-05T09:04:34.654Z,26.88
2019-05-05T09:07:06.081Z,26.53
2019-05-05T09:09:37.716Z,26.62
2019-05-05T09:12:10.741Z,26.78
2019-05-05T09:14:44.927Z,26.59
2019-05-05T09:17:16.851Z,26.28
2019-05-05T09:19:48.246Z,26.07
2019-05-05T09:22:20.937Z,26.12
2019-05-05T09:25:10.529Z,25.87
2019-05-05T09:27:46.692Z,25.65
2019-05-05T09:30:24.599Z,25.80
2019-05-05T09:32:57.557Z,25.65
2019-05-05T09:35:29.475Z,25.53
2019-05-05T09:38:03.996Z,25.53
2019-05-05T09:40:44.000Z,25.55
2019-05-05T09:43:15.926Z,25.47
2019-05-05T09:45:47.517Z,25.54
2019-05-05T09:48:19.075Z,25.33
2019-05-05T09:50:53.922Z,25.13
2019-05-05T09:53:27.866Z,25.17
2019-05-05T09:56:00.599Z,25.06
2019-05-05T09:58:34.663Z,24.98
2019-05-05T10:01:07.924Z,24.77
2019-05-05T10:03:39.528Z,24.79
2019-05-05T10:06:11.116Z,24.80
2019-05-05T10:08:44.718Z,24.88
2019-05-05T10:11:17.000Z,25.06
2019-05-05T10:13:50.103Z,25.25
2019-05-05T10:16:23.484Z,25.62
2019-05-05T10:18:55.110Z,25.80
2019-05-05T10:21:26.692Z,25.80
2019-05-05T10:24:00.802Z,25.56
2019-05-05T10:26:34.353Z,25.16
2019-05-05T10:29:08.237Z,24.75
2019-05-05T10:31:39.822Z,24.67
2019-05-05T10:34:13.698Z,24.38
2019-05-05T10:36:47.075Z,24.70
2019-05-05T10:39:29.113Z,24.98
2019-05-05T10:42:03.933Z,25.11
2019-05-05T10:44:35.560Z,25.22
2019-05-05T10:47:07.018Z,25.33
2019-05-05T10:49:39.089Z,25.11
2019-05-05T10:52:14.244Z,24.67
2019-05-05T10:54:46.340Z,24.64
2019-05-05T10:57:18.487Z,24.67
2019-05-05T10:59:53.460Z,24.87
2019-05-05T11:02:25.162Z,25.12
2019-05-05T11:04:59.638Z,25.31
2019-05-05T11:07:31.256Z,25.36
2019-05-05T11:10:06.478Z,25.53
2019-05-05T11:12:38.097Z,25.67
2019-05-05T11:15:09.741Z,25.82
2019-05-05T11:17:43.918Z,26.00
2019-05-05T11:20:18.837Z,26.09
2019-05-05T11:22:51.209Z,25.93
2019-05-05T11:25:24.262Z,25.74
2019-05-05T11:27:57.107Z,25.77
2019-05-05T11:30:46.950Z,25.81
2019-05-05T11:33:34.646Z,26.00
2019-05-05T11:36:17.460Z,26.02
2019-05-05T11:38:49.031Z,25.53
2019-05-05T11:41:21.083Z,25.51
2019-05-05T11:43:54.604Z,25.60
2019-05-05T11:46:27.542Z,25.53
2019-05-05T11:48:59.100Z,25.38
2019-05-05T11:51:30.711Z,25.39
2019-05-05T11:54:04.694Z,25.29
2019-05-05T11:56:37.791Z,25.29
2019-05-05T11:59:11.160Z,25.42
2019-05-05T12:01:45.819Z,25.60
2019-05-05T12:04:18.347Z,25.58
2019-05-05T12:06:55.707Z,25.64
2019-05-05T12:09:28.901Z,25.70
2019-05-05T12:12:00.426Z,25.84
2019-05-05T12:14:32.646Z,25.85
2019-05-05T12:17:06.874Z,25.69
2019-05-05T12:19:43.412Z,25.76
2019-05-05T12:22:19.580Z,25.80
2019-05-05T12:24:53.492Z,25.41
2019-05-05T12:27:27.344Z,25.18
2019-05-05T12:29:59.625Z,24.99
2019-05-05T12:32:31.229Z,25.12
2019-05-05T12:35:04.220Z,25.12
2019-05-05T12:37:36.285Z,24.94
2019-05-05T12:40:09.066Z,24.80
2019-05-05T12:42:40.880Z,24.18
2019-05-05T12:45:16.395Z,23.77
2019-05-05T12:48:08.999Z,23.57
2019-05-05T12:50:40.913Z,23.69
2019-05-05T12:53:14.540Z,24.14
2019-05-05T12:55:47.449Z,24.49
2019-05-05T12:58:19.089Z,24.51
2019-05-05T13:00:58.301Z,24.50
2019-05-05T13:03:29.881Z,24.63
2019-05-05T13:06:01.535Z,24.77
2019-05-05T13:08:35.994Z,24.61
2019-05-05T13:11:08.378Z,24.28
2019-05-05T13:13:40.480Z,24.10
2019-05-05T13:16:13.736Z,23.51
2019-05-05T13:18:45.534Z,23.29
2019-05-05T13:21:36.072Z,23.08
2019-05-05T13:24:27.300Z,22.89
2019-05-05T13:27:09.609Z,22.97
2019-05-05T13:29:39.957Z,23.31
2019-05-05T13:32:11.493Z,23.66
2019-05-05T13:34:43.934Z,23.84
2019-05-05T13:37:15.615Z,23.86
2019-05-05T13:39:49.655Z,23.72
2019-05-05T13:42:21.204Z,23.35
2019-05-05T13:44:54.338Z,23.41
2019-05-05T13:47:34.252Z,23.63
2019-05-05T13:50:14.116Z,23.69
2019-05-05T13:52:47.210Z,23.81
2019-05-05T13:55:18.820Z,23.54
2019-05-05T13:57:52.012Z,23.22
2019-05-05T14:00:25.639Z,23.17
2019-05-05T14:03:00.102Z,23.22
2019-05-05T14:05:34.236Z,23.29
2019-05-05T14:08:06.912Z,23.34
2019-05-05T14:10:40.711Z,23.25
2019-05-05T14:13:15.240Z,23.25
2019-05-05T14:15:46.843Z,23.18
2019-05-05T14:18:18.863Z,23.08
2019-05-05T14:20:51.602Z,23.10
2019-05-05T14:23:24.562Z,23.05
2019-05-05T14:25:56.075Z,22.96
2019-05-05T14:28:27.676Z,22.98
2019-05-05T14:31:00.904Z,22.94
2019-05-05T14:33:34.198Z,22.89
2019-05-05T14:36:19.563Z,22.84
2019-05-05T14:38:54.060Z,22.78
2019-05-05T14:41:28.166Z,22.77
2019-05-05T14:44:00.887Z,22.75
2019-05-05T14:46:34.033Z,22.65
2019-05-05T14:49:07.219Z,22.56
2019-05-05T14:51:38.863Z,22.49
2019-05-05T14:54:14.617Z,22.41
2019-05-05T14:56:46.067Z,22.31
2019-05-05T14:59:19.286Z,22.31
2019-05-05T15:01:50.863Z,22.23
2019-05-05T15:04:24.004Z,22.19
2019-05-05T15:07:03.777Z,22.12
2019-05-05T15:09:38.228Z,22.05
2019-05-05T15:12:23.785Z,22.02
2019-05-05T15:14:55.526Z,21.96
2019-05-05T15:17:27.040Z,21.87
2019-05-05T15:19:58.684Z,21.83
2019-05-05T15:22:31.571Z,21.78
2019-05-05T15:25:05.773Z,21.71
2019-05-05T15:27:38.589Z,21.67
2019-05-05T15:30:12.508Z,21.61
2019-05-05T15:32:45.629Z,21.56
2019-05-05T15:35:17.739Z,21.50
2019-05-05T15:37:49.299Z,21.41
2019-05-05T15:40:21.217Z,21.32
2019-05-05T15:42:54.479Z,21.33
2019-05-05T15:45:27.211Z,21.25
2019-05-05T15:47:58.736Z,21.16
2019-05-05T15:50:31.230Z,21.11
2019-05-05T15:53:03.843Z,21.09
2019-05-05T15:55:38.360Z,21.01
2019-05-05T15:58:11.039Z,21.00
2019-05-05T16:00:44.322Z,20.90
2019-05-05T16:03:16.011Z,20.81
2019-05-05T16:05:47.626Z,20.75
2019-05-05T16:08:20.551Z,20.69
2019-05-05T16:10:54.438Z,20.62
2019-05-05T16:13:25.364Z,20.54
2019-05-05T16:16:14.748Z,20.47
2019-05-05T16:19:04.939Z,20.38
2019-05-05T16:21:28.577Z,20.27
2019-05-05T16:24:08.339Z,20.25
2019-05-05T16:26:41.375Z,20.22
2019-05-05T16:29:15.667Z,20.14
2019-05-05T16:31:48.683Z,20.02
2019-05-05T16:34:23.559Z,19.92
2019-05-05T16:36:57.024Z,19.84
2019-05-05T16:39:33.562Z,19.72
2019-05-05T16:42:05.586Z,19.63
2019-05-05T16:44:37.252Z,19.49
2019-05-05T16:47:08.792Z,19.36
2019-05-05T16:49:40.416Z,19.27
2019-05-05T16:52:14.638Z,19.18
2019-05-05T16:55:00.716Z,19.02
2019-05-05T16:57:36.486Z,18.93
2019-05-05T17:00:08.996Z,18.80
2019-05-05T17:02:44.486Z,18.67
2019-05-05T17:05:16.792Z,18.57
2019-05-05T17:07:49.199Z,18.44
2019-05-05T17:10:24.293Z,18.31
2019-05-05T17:12:59.210Z,18.17
2019-05-05T17:15:36.366Z,18.02
2019-05-05T17:18:09.481Z,17.84
2019-05-05T17:20:54.759Z,17.69
2019-05-05T17:23:28.942Z,17.56
2019-05-05T17:26:03.494Z,17.39
2019-05-05T17:28:35.498Z,17.20
2019-05-05T17:31:08.442Z,16.99
2019-05-05T17:33:44.725Z,16.82
2019-05-05T17:36:18.489Z,16.70
2019-05-05T17:38:57.981Z,16.52
2019-05-05T17:41:49.699Z,16.44
2019-05-05T17:44:25.190Z,16.47
2019-05-05T17:46:59.952Z,16.53
2019-05-05T17:49:33.974Z,16.53
2019-05-05T17:52:14.333Z,16.53
2019-05-05T17:54:47.416Z,16.49
2019-05-05T17:57:19.412Z,16.42
2019-05-05T17:59:53.694Z,16.38
2019-05-05T18:02:26.360Z,16.30
2019-05-05T18:05:10.890Z,16.20
2019-05-05T18:07:44.234Z,16.10
2019-05-05T18:10:17.807Z,16.04
2019-05-05T18:12:56.801Z,15.98
2019-05-05T18:15:48.280Z,15.91
2019-05-05T18:18:23.350Z,15.88
2019-05-05T18:20:55.670Z,15.85
2019-05-05T18:23:28.870Z,15.88
2019-05-05T18:26:04.160Z,15.91
2019-05-05T18:28:36.056Z,15.89
2019-05-05T18:31:10.819Z,15.84
2019-05-05T18:33:42.521Z,15.79
2019-05-05T18:36:15.064Z,15.74
2019-05-05T18:38:48.135Z,15.70
2019-05-05T18:41:23.658Z,15.65
2019-05-05T18:43:59.108Z,15.63
2019-05-05T18:46:30.607Z,15.59
2019-05-05T18:49:04.426Z,15.54
2019-05-05T18:51:36.267Z,15.51
2019-05-05T18:54:08.014Z,15.45
2019-05-05T18:56:41.640Z,15.42
2019-05-05T18:59:14.617Z,15.34
2019-05-05T19:01:48.815Z,15.30
2019-05-05T19:04:26.460Z,15.29
2019-05-05T19:07:04.989Z,15.28
2019-05-05T19:09:50.994Z,15.23
2019-05-05T19:12:15.063Z,15.15
2019-05-05T19:14:46.708Z,15.08
2019-05-05T19:17:18.727Z,15.04
2019-05-05T19:19:54.891Z,15.00
2019-05-05T19:22:26.950Z,14.96
2019-05-05T19:24:59.997Z,14.90
2019-05-05T19:27:33.584Z,14.76
2019-05-05T19:30:06.546Z,14.68
2019-05-05T19:32:43.604Z,14.61
2019-05-05T19:35:15.521Z,14.47
2019-05-05T19:37:48.165Z,14.43
2019-05-05T19:40:20.403Z,14.39
2019-05-05T19:42:54.092Z,14.34
2019-05-05T19:45:26.746Z,14.29
2019-05-05T19:48:00.192Z,14.22
2019-05-05T19:50:54.060Z,14.16
2019-05-05T19:53:27.870Z,14.06
2019-05-05T19:56:04.076Z,14.03
2019-05-05T19:58:36.607Z,14.06
2019-05-05T20:01:09.498Z,14.05
2019-05-05T20:03:44.111Z,13.91
2019-05-05T20:06:17.640Z,13.86
2019-05-05T20:08:50.368Z,13.89
2019-05-05T20:11:24.737Z,13.99
2019-05-05T20:14:07.013Z,14.11
2019-05-05T20:16:37.614Z,14.13
2019-05-05T20:19:13.532Z,13.95
2019-05-05T20:21:46.187Z,13.81
2019-05-05T20:24:17.750Z,13.69
2019-05-05T20:26:49.970Z,13.69
2019-05-05T20:29:23.866Z,13.53
2019-05-05T20:31:56.699Z,13.47
2019-05-05T20:34:31.327Z,13.50
2019-05-05T20:37:14.290Z,13.43
2019-05-05T20:39:46.028Z,13.36
2019-05-05T20:42:17.634Z,13.30
2019-05-05T20:44:54.266Z,13.29
2019-05-05T20:47:25.582Z,13.31
2019-05-05T20:49:58.640Z,13.43
2019-05-05T20:52:31.660Z,13.40
2019-05-05T20:55:06.161Z,13.32
2019-05-05T20:57:37.948Z,13.37
2019-05-05T21:00:11.263Z,13.55
2019-05-05T21:02:45.899Z,13.36
2019-05-05T21:05:17.525Z,13.26
2019-05-05T21:07:49.146Z,13.26
2019-05-05T21:10:23.971Z,13.17
2019-05-05T21:12:56.793Z,13.16
2019-05-05T21:15:29.748Z,12.98
2019-05-05T21:18:02.028Z,12.95
2019-05-05T21:20:36.010Z,12.82
2019-05-05T21:23:26.092Z,12.72
2019-05-05T21:26:08.403Z,12.62
2019-05-05T21:28:40.001Z,12.61
2019-05-05T21:31:14.484Z,12.63
2019-05-05T21:33:45.985Z,12.65
2019-05-05T21:36:17.658Z,12.70
2019-05-05T21:38:50.063Z,12.70
2019-05-05T21:41:24.484Z,12.63
2019-05-05T21:43:56.466Z,12.58
2019-05-05T21:46:28.236Z,12.55
2019-05-05T21:49:03.871Z,12.58
2019-05-05T21:51:43.948Z,12.57
2019-05-05T21:54:34.286Z,12.53
2019-05-05T21:57:14.045Z,12.52
2019-05-05T21:59:55.565Z,12.45
2019-05-05T22:02:23.586Z,12.38
2019-05-05T22:04:55.410Z,12.35
2019-05-05T22:07:26.999Z,12.35
2019-05-05T22:09:58.746Z,12.36
2019-05-05T22:12:33.397Z,12.39
2019-05-05T22:15:06.890Z,12.43
2019-05-05T22:17:39.756Z,12.50
2019-05-05T22:20:19.146Z,12.51
2019-05-05T22:22:50.966Z,12.50
2019-05-05T22:25:22.624Z,12.51
2019-05-05T22:27:54.554Z,12.57
2019-05-05T22:30:26.163Z,12.54
2019-05-05T22:32:59.115Z,12.49
2019-05-05T22:35:30.630Z,12.42
2019-05-05T22:38:05.849Z,12.40
2019-05-05T22:40:35.539Z,12.43
2019-05-05T22:43:07.135Z,12.43
2019-05-05T22:45:38.745Z,12.43
2019-05-05T22:48:10.344Z,12.41
2019-05-05T22:50:43.673Z,12.52
2019-05-05T22:53:16.369Z,12.55
2019-05-05T22:55:48.901Z,12.53
2019-05-05T22:58:20.540Z,12.50
2019-05-05T23:00:54.693Z,12.47
2019-05-05T23:03:28.567Z,12.40
2019-05-05T23:06:01.717Z,12.38
2019-05-05T23:08:35.087Z,12.49
2019-05-05T23:11:06.853Z,12.41
2019-05-05T23:13:39.496Z,12.45
2019-05-05T23:16:21.378Z,12.48
2019-05-05T23:18:54.732Z,12.54
2019-05-05T23:21:27.706Z,12.49
2019-05-05T23:24:03.936Z,12.47
2019-05-05T23:26:40.562Z,12.56
2019-05-05T23:29:12.154Z,12.57
2019-05-05T23:31:44.423Z,12.61
2019-05-05T23:34:16.574Z,12.61
2019-05-05T23:36:48.253Z,12.57
2019-05-05T23:39:19.821Z,12.58
2019-05-05T23:41:51.346Z,12.64
2019-05-05T23:44:23.818Z,12.65
2019-05-05T23:46:55.500Z,12.60
2019-05-05T23:49:27.018Z,12.71
2019-05-05T23:51:58.555Z,12.69
2019-05-05T23:54:30.184Z,12.80
2019-05-05T23:57:04.703Z,12.75
2019-05-05T23:59:36.071Z,12.70
